Time;durP1;ratioP1;P1;durP2;ratioP2;P2;SDS_P1;SDS_P2;PMS_P1;PMS_P2;Temp;Humidity;BMP_temperature;BMP_pressure;BME280_temperature;BME280_humidity;BME280_pressure;Samples;Min_cycle;Max_cycle;Signal;HPM_P1;HPM_P2
2023/07/12 00:00:59;;;;;;;4.13;3.30;;;;;;;24.60;73.41;99552.84;10362920;28;20634;-70
2023/07/12 00:06:00;;;;;;;5.00;4.45;;;;;;;24.35;73.83;99538.34;10369646;28;20077;-68
2023/07/12 00:11:02;;;;;;;3.90;3.60;;;;;;;24.35;74.74;99540.22;10366099;28;20603;-67
2023/07/12 00:16:16;;;;;;;4.22;3.83;;;;;;;24.32;75.56;99538.78;10366216;28;20049;-65
2023/07/12 00:21:24;;;;;;;4.97;3.25;;;;;;;24.35;75.19;99560.09;10362739;28;20120;-66
2023/07/12 00:26:32;;;;;;;4.13;3.72;;;;;;;24.30;75.37;99557.22;10367673;28;21201;-67
2023/07/12 00:31:35;;;;;;;4.55;3.63;;;;;;;24.35;76.32;99537.50;10365069;28;20045;-70
2023/07/12 00:36:39;;;;;;;5.03;4.00;;;;;;;24.27;75.63;99521.50;10361222;28;20062;-68
2023/07/12 00:42:04;;;;;;;5.38;4.18;;;;;;;24.35;76.12;99524.72;10369800;28;20038;-67
2023/07/12 00:47:11;;;;;;;3.90;3.60;;;;;;;24.39;76.00;99535.16;10370486;28;20859;-66
2023/07/12 00:52:18;;;;;;;5.57;4.05;;;;;;;24.35;75.85;99538.34;10359998;28;20042;-66
2023/07/12 00:57:25;;;;;;;3.90;3.50;;;;;;;24.03;76.37;99517.88;10361401;28;20057;-66
2023/07/12 01:02:26;;;;;;;6.35;4.45;;;;;;;24.04;76.92;99519.53;10377716;28;20407;-66
2023/07/12 01:07:30;;;;;;;3.60;3.30;;;;;;;24.05;76.69;99526.63;10364280;28;20551;-66
2023/07/12 01:12:32;;;;;;;4.03;3.20;;;;;;;24.09;76.08;99520.50;10360691;28;20116;-67
2023/07/12 01:17:33;;;;;;;4.57;3.38;;;;;;;23.97;75.83;99509.56;10363668;28;20057;-66
2023/07/12 01:22:35;;;;;;;4.88;3.55;;;;;;;24.03;75.93;99550.50;10365418;28;20049;-67
2023/07/12 01:27:36;;;;;;;6.63;3.92;;;;;;;23.99;75.54;99534.66;10359107;28;20099;-66
2023/07/12 01:32:39;;;;;;;5.05;3.08;;;;;;;23.98;75.61;99549.28;10366145;28;20049;-65
2023/07/12 01:37:41;;;;;;;3.38;3.08;;;;;;;24.01;75.08;99548.00;10356197;28;20663;-66
2023/07/12 01:42:43;;;;;;;3.97;3.13;;;;;;;24.00;75.32;99536.31;10358239;28;20053;-66
2023/07/12 01:47:44;;;;;;;6.78;3.00;;;;;;;24.05;75.68;99535.63;10356069;28;20057;-66
2023/07/12 01:52:46;;;;;;;4.32;3.22;;;;;;;24.03;75.32;99517.88;10355456;28;20061;-65
2023/07/12 01:57:47;;;;;;;3.55;2.60;;;;;;;23.96;75.50;99502.50;10361023;28;20048;-66
2023/07/12 02:02:48;;;;;;;5.03;2.63;;;;;;;24.01;74.61;99504.50;10355020;28;20056;-66
2023/07/12 02:07:52;;;;;;;4.53;2.88;;;;;;;23.99;74.55;99501.22;10355978;28;21105;-66
2023/07/12 02:12:54;;;;;;;4.35;2.63;;;;;;;23.99;73.54;99507.47;10356559;28;20420;-66
2023/07/12 02:17:56;;;;;;;3.17;2.35;;;;;;;23.82;75.21;99481.94;10355329;28;20523;-67
2023/07/12 02:22:58;;;;;;;3.78;3.08;;;;;;;23.88;75.21;99481.06;10360300;28;20085;-66
2023/07/12 02:28:00;;;;;;;3.33;2.50;;;;;;;23.72;75.33;99470.78;10361182;28;20061;-65
2023/07/12 02:33:01;;;;;;;3.20;2.90;;;;;;;23.65;75.52;99477.13;10362640;28;20057;-66
2023/07/12 02:38:02;;;;;;;3.47;2.70;;;;;;;23.59;75.45;99448.19;10357580;28;20132;-66
2023/07/12 02:43:04;;;;;;;3.25;2.40;;;;;;;23.75;74.90;99462.19;10357790;28;21011;-66
2023/07/12 02:48:05;;;;;;;3.08;2.78;;;;;;;23.74;74.93;99450.50;10358816;28;20139;-66
2023/07/12 02:53:17;;;;;;;3.25;2.42;;;;;;;23.71;75.41;99455.56;10352135;28;20187;-66
2023/07/12 02:58:19;;;;;;;3.78;2.97;;;;;;;23.69;75.13;99453.06;10359393;28;20045;-66
2023/07/12 03:03:21;;;;;;;5.57;3.00;;;;;;;23.57;75.22;99457.59;10352032;28;20139;-66
2023/07/12 03:08:22;;;;;;;4.00;3.00;;;;;;;23.61;75.28;99466.97;10350790;28;20132;-66
2023/07/12 03:13:24;;;;;;;4.40;2.83;;;;;;;23.44;75.57;99464.84;10351517;28;20827;-65
2023/07/12 03:18:25;;;;;;;3.63;3.10;;;;;;;23.54;75.54;99475.19;10354024;28;20569;-65
2023/07/12 03:23:29;;;;;;;5.80;3.17;;;;;;;23.38;75.57;99456.81;10360140;28;20041;-66
2023/07/12 03:28:31;;;;;;;3.38;2.30;;;;;;;23.44;75.77;99461.31;10353567;28;20046;-66
2023/07/12 03:33:33;;;;;;;3.83;2.65;;;;;;;23.37;76.01;99455.97;10349799;28;20080;-66
2023/07/12 03:38:35;;;;;;;3.08;2.47;;;;;;;23.51;75.69;99467.50;10353536;28;20111;-66
2023/07/12 03:43:36;;;;;;;4.43;2.95;;;;;;;23.47;75.76;99471.72;10351426;28;20064;-66
2023/07/12 03:48:38;;;;;;;4.22;2.75;;;;;;;23.41;75.87;99468.03;10352322;28;20100;-65
2023/07/12 03:53:40;;;;;;;3.15;2.70;;;;;;;23.41;76.18;99461.78;10351047;28;20144;-66
2023/07/12 03:58:41;;;;;;;3.40;3.10;;;;;;;23.47;76.39;99480.69;10356274;28;20688;-66
2023/07/12 04:03:43;;;;;;;3.83;2.80;;;;;;;23.48;76.39;99478.84;10359738;28;20133;-65
2023/07/12 04:08:44;;;;;;;4.82;3.42;;;;;;;23.47;76.06;99493.47;10359667;28;20281;-64
2023/07/12 04:13:45;;;;;;;4.63;2.55;;;;;;;23.51;75.96;99496.53;10346700;28;20543;-65
2023/07/12 04:18:47;;;;;;;4.60;2.92;;;;;;;23.47;76.43;99496.19;10353539;28;20779;-65
2023/07/12 04:23:49;;;;;;;6.65;2.78;;;;;;;23.52;76.18;99507.16;10357712;28;20053;-65
2023/07/12 04:28:51;;;;;;;4.03;2.63;;;;;;;23.61;76.09;99516.66;10356603;28;20053;-65
2023/07/12 04:33:53;;;;;;;5.13;3.10;;;;;;;23.56;75.98;99519.25;10358981;28;20064;-64
2023/07/12 04:38:54;;;;;;;4.25;3.28;;;;;;;23.55;75.65;99528.44;10360238;28;20143;-66
2023/07/12 04:43:56;;;;;;;6.25;3.65;;;;;;;23.44;77.01;99531.94;10357642;28;20108;-65
2023/07/12 04:48:57;;;;;;;2.97;2.60;;;;;;;23.36;77.38;99532.22;10363159;28;20092;-65
2023/07/12 04:53:59;;;;;;;4.57;3.35;;;;;;;23.47;76.43;99536.91;10363725;28;20045;-65
2023/07/12 04:59:00;;;;;;;6.82;3.38;;;;;;;23.55;76.44;99550.19;10365443;28;20139;-66
2023/07/12 05:04:04;;;;;;;4.10;3.10;;;;;;;23.39;77.48;99567.91;10364095;28;20049;-66
2023/07/12 05:09:05;;;;;;;4.22;3.80;;;;;;;23.29;77.85;99597.47;10370333;28;20754;-65
2023/07/12 05:14:07;;;;;;;5.85;3.97;;;;;;;23.21;78.33;99608.59;10382561;28;20136;-66
2023/07/12 05:19:08;;;;;;;5.97;3.75;;;;;;;23.24;78.19;99606.28;10358341;28;20149;-66
2023/07/12 05:24:10;;;;;;;5.25;3.45;;;;;;;23.41;77.91;99622.00;10352384;28;20050;-65
2023/07/12 05:29:12;;;;;;;5.38;3.40;;;;;;;23.41;78.06;99627.44;10358037;28;20092;-66
2023/07/12 05:34:14;;;;;;;5.10;3.67;;;;;;;23.25;78.64;99636.97;10359662;28;20049;-65
2023/07/12 05:39:15;;;;;;;5.32;3.58;;;;;;;23.39;78.06;99637.66;10356718;28;20136;-66
2023/07/12 05:44:17;;;;;;;6.38;4.18;;;;;;;23.37;77.69;99639.78;10360178;28;20049;-64
2023/07/12 05:49:20;;;;;;;6.53;5.00;;;;;;;23.39;77.47;99596.94;10359937;28;20144;-64
2023/07/12 05:54:21;;;;;;;7.43;3.95;;;;;;;23.76;75.87;99640.44;10354801;28;20057;-64
2023/07/12 05:59:23;;;;;;;4.90;4.03;;;;;;;23.85;74.94;99635.56;10351101;28;20156;-64
2023/07/12 06:04:24;;;;;;;6.72;3.67;;;;;;;23.88;71.62;99641.38;10352495;28;20107;-66
2023/07/12 06:09:27;;;;;;;8.10;4.15;;;;;;;24.10;69.02;99670.84;10353370;28;20057;-67
2023/07/12 06:14:28;;;;;;;7.03;4.38;;;;;;;24.10;65.93;99666.25;10349722;28;20057;-64
2023/07/12 06:19:30;;;;;;;5.00;3.38;;;;;;;24.00;64.78;99674.09;10343653;28;20586;-62
2023/07/12 06:24:31;;;;;;;3.47;3.17;;;;;;;24.11;63.21;99675.22;10341649;28;20164;-65
2023/07/12 06:29:33;;;;;;;5.47;3.65;;;;;;;24.03;62.62;99678.25;10341183;28;20058;-65
2023/07/12 06:34:34;;;;;;;4.38;3.35;;;;;;;24.07;63.20;99693.06;10346074;28;20090;-65
2023/07/12 06:39:36;;;;;;;3.13;2.90;;;;;;;24.06;61.48;99696.81;10348890;28;20053;-64
2023/07/12 06:44:38;;;;;;;3.53;3.23;;;;;;;23.89;61.90;99691.97;10347934;28;20530;-64
2023/07/12 06:49:39;;;;;;;6.63;2.60;;;;;;;24.07;63.50;99701.22;10351270;28;20395;-65
2023/07/12 06:54:41;;;;;;;2.42;2.33;;;;;;;24.19;59.86;99699.41;10346157;28;20041;-65
2023/07/12 06:59:42;;;;;;;2.95;2.30;;;;;;;24.17;60.36;99698.81;10346264;28;20076;-65
2023/07/12 07:04:43;;;;;;;3.10;1.80;;;;;;;24.23;60.01;99703.34;10348530;28;20053;-65
2023/07/12 07:09:45;;;;;;;2.47;1.58;;;;;;;24.25;59.80;99712.09;10348224;28;20168;-67
2023/07/12 07:14:47;;;;;;;2.42;1.50;;;;;;;24.38;59.31;99716.56;10346211;28;20140;-65
2023/07/12 07:19:48;;;;;;;3.13;1.80;;;;;;;24.25;59.74;99709.38;10346790;28;20057;-65
2023/07/12 07:24:49;;;;;;;2.97;1.77;;;;;;;24.53;58.11;99708.81;10351727;28;20605;-65
2023/07/12 07:29:51;;;;;;;3.05;1.70;;;;;;;24.70;57.79;99714.47;10343994;28;20052;-64
2023/07/12 07:34:53;;;;;;;2.97;1.58;;;;;;;24.60;57.90;99703.31;10350562;28;20637;-64
2023/07/12 07:39:54;;;;;;;2.30;1.90;;;;;;;24.65;57.44;99711.63;10353134;28;20114;-64
2023/07/12 07:44:55;;;;;;;2.35;2.15;;;;;;;24.90;57.70;99707.94;10353313;28;20422;-63
2023/07/12 07:49:57;;;;;;;3.00;2.00;;;;;;;24.91;57.00;99716.97;10351012;28;20076;-63
2023/07/12 07:54:59;;;;;;;3.25;2.33;;;;;;;25.15;56.00;99704.25;10353204;28;20057;-65
2023/07/12 08:00:04;;;;;;;4.30;2.25;;;;;;;25.42;54.68;99707.41;10351643;28;20059;-64
2023/07/12 08:05:06;;;;;;;2.35;2.15;;;;;;;25.52;55.18;99717.72;10350066;28;20045;-66
2023/07/12 08:10:15;;;;;;;4.03;2.53;;;;;;;25.49;54.03;99712.72;10348951;28;20123;-64
2023/07/12 08:15:20;;;;;;;2.90;2.38;;;;;;;25.44;54.42;99712.63;10348478;28;20494;-64
2023/07/12 08:20:23;;;;;;;2.92;2.53;;;;;;;25.23;56.08;99704.72;10351994;28;20056;-63
2023/07/12 08:25:24;;;;;;;2.45;2.25;;;;;;;25.15;55.22;99701.53;10359562;28;20132;-65
2023/07/12 08:30:26;;;;;;;2.60;2.40;;;;;;;25.51;55.59;99707.91;10360920;28;20419;-65
2023/07/12 08:35:27;;;;;;;4.03;1.98;;;;;;;25.66;54.42;99710.16;10356028;28;20057;-62
2023/07/12 08:40:49;;;;;;;1.85;1.75;;;;;;;25.63;53.70;99722.34;10361873;28;20266;-65
2023/07/12 08:45:53;;;;;;;2.33;1.90;;;;;;;25.70;53.70;99717.63;10362864;28;20164;-64
2023/07/12 08:50:55;;;;;;;3.70;1.90;;;;;;;25.97;53.43;99717.13;10355707;28;20053;-63
2023/07/12 08:56:00;;;;;;;5.22;2.33;;;;;;;26.04;53.05;99715.13;10356130;28;20055;-63
2023/07/12 09:01:05;;;;;;;3.28;1.77;;;;;;;25.79;51.12;99693.53;10356506;28;20731;-63
2023/07/12 09:06:12;;;;;;;2.40;1.70;;;;;;;26.26;51.49;99730.91;10356560;28;20073;-63
2023/07/12 09:11:16;;;;;;;5.03;2.63;;;;;;;26.62;49.72;99726.19;10359615;28;20054;-64
2023/07/12 09:16:33;;;;;;;2.80;1.27;;;;;;;26.88;48.00;99715.78;10357786;28;20057;-63
2023/07/12 09:21:37;;;;;;;4.40;1.10;;;;;;;26.96;47.54;99718.97;10353589;28;20045;-64
2023/07/12 09:26:38;;;;;;;3.10;0.80;;;;;;;27.00;47.93;99711.09;10357695;28;20037;-63
2023/07/12 09:31:43;;;;;;;1.48;0.63;;;;;;;27.03;47.12;99713.34;10357209;28;20061;-64
2023/07/12 09:36:45;;;;;;;2.67;1.52;;;;;;;27.20;46.04;99724.28;10356675;28;20053;-64
2023/07/12 09:41:53;;;;;;;3.08;0.95;;;;;;;27.31;46.78;99708.91;10356487;28;20053;-64
2023/07/12 09:47:11;;;;;;;1.70;1.20;;;;;;;27.55;46.28;99708.75;10355537;28;20045;-65
2023/07/12 09:52:27;;;;;;;11.48;2.95;;;;;;;27.91;46.28;99712.03;10357497;28;20046;-64
2023/07/12 09:57:38;;;;;;;2.38;1.27;;;;;;;27.68;45.65;99702.94;10353620;28;20132;-64
2023/07/12 10:02:51;;;;;;;2.53;1.17;;;;;;;27.72;45.50;99717.78;10349464;28;20046;-63
2023/07/12 10:08:08;;;;;;;2.47;1.70;;;;;;;27.70;45.17;99722.69;10351567;28;20152;-64
2023/07/12 10:13:40;;;;;;;2.90;1.27;;;;;;;28.25;45.00;99712.81;10353197;28;20540;-63
2023/07/12 10:18:44;;;;;;;3.07;1.00;;;;;;;28.46;42.97;99702.94;10354873;28;20060;-63
2023/07/12 10:23:54;;;;;;;2.75;1.60;;;;;;;28.55;42.99;99695.97;10357449;28;20052;-63
2023/07/12 10:29:20;;;;;;;6.45;1.52;;;;;;;28.74;42.41;99690.16;10358347;28;20523;-64
2023/07/12 10:34:43;;;;;;;4.85;2.00;;;;;;;28.83;43.38;99696.84;10357510;28;20115;-64
2023/07/12 10:39:47;;;;;;;3.60;1.63;;;;;;;28.64;44.09;99688.13;10357479;28;20112;-63
2023/07/12 10:44:54;;;;;;;4.38;1.67;;;;;;;28.28;44.09;99695.06;10355158;28;20586;-63
2023/07/12 10:50:02;;;;;;;3.10;1.85;;;;;;;28.29;44.31;99700.28;10351337;28;20041;-63
2023/07/12 10:55:04;;;;;;;3.17;1.60;;;;;;;28.08;43.93;99690.97;10354741;28;20060;-64
2023/07/12 11:00:27;;;;;;;2.67;1.70;;;;;;;28.31;44.11;99695.38;10357573;28;20065;-63
2023/07/12 11:05:47;;;;;;;4.18;1.65;;;;;;;27.99;44.18;99681.56;10356298;28;20049;-63
2023/07/12 11:10:48;;;;;;;4.15;1.30;;;;;;;28.09;43.72;99670.75;10355821;28;20057;-63
2023/07/12 11:15:58;;;;;;;3.00;1.35;;;;;;;28.44;41.01;99669.53;10358786;28;20550;-63
2023/07/12 11:21:24;;;;;;;1.98;0.88;;;;;;;29.04;38.67;99661.44;10354971;28;20087;-64
2023/07/12 11:26:32;;;;;;;1.17;0.70;;;;;;;29.07;38.36;99649.94;10350455;28;20104;-64
2023/07/12 11:31:33;;;;;;;2.30;0.80;;;;;;;29.02;39.11;99661.69;10351733;28;20130;-63
2023/07/12 11:36:36;;;;;;;2.07;1.20;;;;;;;28.96;38.40;99670.09;10351367;28;20850;-64
2023/07/12 11:41:37;;;;;;;2.08;0.70;;;;;;;28.85;38.43;99664.53;10351531;28;20041;-64
2023/07/12 11:46:40;;;;;;;2.83;0.80;;;;;;;29.03;37.68;99667.97;10357145;28;20081;-63
2023/07/12 11:51:46;;;;;;;3.08;0.70;;;;;;;29.34;37.00;99676.50;10356824;28;20535;-63
2023/07/12 11:56:50;;;;;;;2.60;0.70;;;;;;;29.26;36.13;99675.91;10348844;28;20058;-64
2023/07/12 12:01:52;;;;;;;2.10;0.63;;;;;;;29.26;36.01;99673.16;10354105;28;20069;-63
2023/07/12 12:07:02;;;;;;;1.77;0.75;;;;;;;29.40;35.00;99672.72;10352455;28;20068;-63
2023/07/12 12:12:07;;;;;;;1.80;0.47;;;;;;;29.22;35.85;99666.53;10354780;28;20046;-64
2023/07/12 12:17:17;;;;;;;1.85;0.45;;;;;;;29.13;36.20;99646.16;10353512;28;20049;-63
2023/07/12 12:22:26;;;;;;;1.27;0.52;;;;;;;29.08;35.69;99665.31;10360122;28;20059;-63
2023/07/12 12:27:35;;;;;;;3.58;0.70;;;;;;;29.16;35.80;99675.78;10360253;28;20053;-64
2023/07/12 12:32:38;;;;;;;1.67;0.73;;;;;;;29.16;35.46;99656.59;10356914;28;20704;-63
2023/07/12 12:37:39;;;;;;;1.92;0.60;;;;;;;29.07;35.14;99660.91;10354956;28;20076;-64
2023/07/12 12:43:01;;;;;;;1.35;0.70;;;;;;;29.43;35.25;99650.25;10356483;28;20073;-63
2023/07/12 12:48:10;;;;;;;1.10;0.82;;;;;;;29.50;35.28;99672.78;10350076;28;20089;-64
2023/07/12 12:53:18;;;;;;;2.45;0.80;;;;;;;29.33;35.59;99658.41;10357017;28;20103;-63
2023/07/12 12:58:23;;;;;;;1.38;0.70;;;;;;;29.37;35.75;99657.63;10359195;28;20057;-63
2023/07/12 13:03:45;;;;;;;2.55;0.70;;;;;;;29.12;35.89;99651.91;10360297;28;21725;-64
2023/07/12 13:08:49;;;;;;;1.27;0.50;;;;;;;29.08;36.11;99662.56;10364810;28;20787;-63
2023/07/12 13:13:54;;;;;;;1.45;0.50;;;;;;;29.08;36.50;99649.69;10366958;28;20107;-63
2023/07/12 13:18:58;;;;;;;3.67;1.35;;;;;;;29.09;35.95;99661.47;10370352;28;20049;-64
2023/07/12 13:24:19;;;;;;;2.03;0.70;;;;;;;29.19;36.07;99652.50;10361762;28;20168;-65
2023/07/12 13:29:21;;;;;;;1.27;0.50;;;;;;;28.92;35.65;99659.66;10368851;28;20432;-65
2023/07/12 13:34:23;;;;;;;3.83;0.88;;;;;;;28.83;35.75;99647.53;10368617;28;20054;-64
2023/07/12 13:39:44;;;;;;;1.33;0.40;;;;;;;29.05;36.32;99641.13;10358077;28;21597;-65
2023/07/12 13:44:46;;;;;;;1.47;0.60;;;;;;;29.12;36.00;99644.50;10363013;28;20219;-64
2023/07/12 13:49:51;;;;;;;2.25;0.70;;;;;;;29.31;36.38;99652.38;10359297;28;20060;-64
2023/07/12 13:54:53;;;;;;;1.20;0.60;;;;;;;29.37;34.91;99645.84;10361860;28;20053;-65
2023/07/12 13:59:55;;;;;;;4.05;0.57;;;;;;;29.47;35.04;99654.13;10363003;28;20132;-64
2023/07/12 14:05:08;;;;;;;1.95;0.60;;;;;;;29.43;34.58;99644.78;10361395;28;20100;-65
2023/07/12 14:10:18;;;;;;;1.40;0.50;;;;;;;29.45;34.17;99631.63;10359717;28;20050;-67
2023/07/12 14:15:25;;;;;;;3.92;0.73;;;;;;;29.31;33.81;99647.72;10361406;28;20516;-64
2023/07/12 14:20:27;;;;;;;1.98;0.80;;;;;;;29.23;34.51;99646.28;10358117;28;20531;-63
2023/07/12 14:25:28;;;;;;;1.10;0.55;;;;;;;29.38;35.24;99650.22;10363774;28;20697;-65
2023/07/12 14:30:30;;;;;;;2.03;0.70;;;;;;;29.53;33.83;99639.38;10362755;28;20869;-65
2023/07/12 14:35:35;;;;;;;2.20;0.65;;;;;;;29.48;34.17;99636.56;10362870;28;20139;-65
2023/07/12 14:40:37;;;;;;;1.20;0.80;;;;;;;29.29;34.51;99649.88;10356685;28;20058;-65
2023/07/12 14:45:38;;;;;;;1.65;0.60;;;;;;;29.12;35.23;99643.69;10360050;28;20041;-64
2023/07/12 14:50:41;;;;;;;0.90;0.60;;;;;;;28.91;35.85;99627.06;10365400;28;20065;-63
2023/07/12 14:55:42;;;;;;;;;;;;;;;28.93;34.86;99638.59;10359018;28;20055;-63
2023/07/12 15:00:44;;;;;;;2.15;0.77;;;;;;;28.97;34.04;99636.16;10358737;28;20339;-64
2023/07/12 15:05:46;;;;;;;2.93;0.60;;;;;;;28.91;33.85;99641.59;10359429;28;20057;-63
2023/07/12 15:10:47;;;;;;;1.42;0.60;;;;;;;28.91;34.20;99648.97;10357504;28;20056;-64
2023/07/12 15:15:49;;;;;;;1.45;0.80;;;;;;;28.79;34.46;99637.34;10356527;28;20049;-63
2023/07/12 15:20:55;;;;;;;1.23;0.80;;;;;;;28.87;33.93;99645.94;10356593;28;20077;-64
2023/07/12 15:26:01;;;;;;;2.45;0.60;;;;;;;28.82;32.97;99628.63;10358525;28;20136;-66
2023/07/12 15:31:02;;;;;;;1.60;0.60;;;;;;;28.91;33.43;99644.34;10356380;28;20076;-61
2023/07/12 15:36:06;;;;;;;0.90;0.60;;;;;;;28.84;33.27;99638.25;10355144;28;20057;-62
2023/07/12 15:41:18;;;;;;;1.98;1.02;;;;;;;28.84;33.26;99648.34;10348424;28;20042;-62
2023/07/12 15:46:25;;;;;;;2.00;0.70;;;;;;;28.74;32.03;99632.66;10350889;28;20053;-62
2023/07/12 15:51:35;;;;;;;1.92;0.90;;;;;;;28.68;31.63;99639.19;10349961;28;20256;-62
2023/07/12 15:56:37;;;;;;;1.38;0.77;;;;;;;28.57;31.82;99651.91;10349455;28;20056;-63
2023/07/12 16:01:39;;;;;;;0.77;0.40;;;;;;;28.56;32.18;99648.31;10348442;28;20470;-63
2023/07/12 16:06:40;;;;;;;2.03;0.50;;;;;;;28.39;31.46;99634.72;10347948;28;20050;-63
2023/07/12 16:11:45;;;;;;;2.30;0.63;;;;;;;28.53;31.53;99654.31;10349256;28;20096;-63
2023/07/12 16:16:47;;;;;;;2.55;0.85;;;;;;;28.45;30.12;99656.69;10348367;28;20104;-63
2023/07/12 16:21:49;;;;;;;1.95;0.90;;;;;;;28.30;28.31;99660.06;10351936;28;20139;-63
2023/07/12 16:26:50;;;;;;;2.85;0.75;;;;;;;28.25;28.83;99669.03;10349165;28;20159;-63
2023/07/12 16:31:52;;;;;;;1.02;0.77;;;;;;;28.19;29.00;99665.44;10346699;28;20469;-63
2023/07/12 16:36:57;;;;;;;1.25;0.60;;;;;;;28.25;28.49;99665.47;10350076;28;20615;-62
2023/07/12 16:41:58;;;;;;;1.08;0.60;;;;;;;28.12;27.95;99664.78;10348937;28;20524;-62
2023/07/12 16:47:00;;;;;;;1.30;0.60;;;;;;;28.02;28.81;99681.88;10356577;28;20054;-62
2023/07/12 16:52:04;;;;;;;0.77;0.70;;;;;;;28.01;28.89;99693.91;10354572;28;20080;-63
2023/07/12 16:57:17;;;;;;;2.95;0.80;;;;;;;27.99;29.12;99689.78;10359603;28;20057;-63
2023/07/12 17:02:23;;;;;;;0.70;0.40;;;;;;;27.95;28.45;99692.13;10358564;28;20385;-63
2023/07/12 17:07:25;;;;;;;1.77;0.75;;;;;;;28.02;28.88;99692.00;10360954;28;20053;-63
2023/07/12 17:12:30;;;;;;;1.23;0.60;;;;;;;27.96;28.27;99687.50;10364355;28;20049;-63
2023/07/12 17:17:33;;;;;;;1.55;0.40;;;;;;;27.90;28.75;99694.00;10359308;28;20140;-63
2023/07/12 17:22:35;;;;;;;2.30;0.43;;;;;;;27.89;29.63;99686.84;10355973;28;20205;-62
2023/07/12 17:27:37;;;;;;;2.27;0.43;;;;;;;27.91;29.15;99688.28;10359019;28;20052;-62
2023/07/12 17:32:39;;;;;;;2.05;0.50;;;;;;;27.79;28.09;99688.38;10360120;28;20057;-63
2023/07/12 17:37:41;;;;;;;1.75;0.40;;;;;;;27.63;28.95;99689.22;10354964;28;20211;-63
2023/07/12 17:42:43;;;;;;;2.72;2.05;;;;;;;27.60;28.94;99684.25;10357591;28;20557;-66
2023/07/12 17:47:44;;;;;;;3.10;1.73;;;;;;;27.57;29.88;99682.84;10356314;28;20152;-63
2023/07/12 17:52:45;;;;;;;2.33;0.63;;;;;;;27.64;30.48;99683.50;10355087;28;20049;-63
2023/07/12 17:57:47;;;;;;;4.00;0.68;;;;;;;27.65;30.08;99687.06;10357093;28;20049;-63
2023/07/12 18:02:48;;;;;;;1.95;0.30;;;;;;;27.52;29.79;99697.25;10354079;28;20585;-63
2023/07/12 18:07:50;;;;;;;1.30;0.30;;;;;;;27.48;29.78;99687.88;10344099;28;20487;-63
2023/07/12 18:12:52;;;;;;;2.78;0.63;;;;;;;27.36;30.18;99662.56;10352437;28;20053;-63
2023/07/12 18:17:53;;;;;;;2.33;0.50;;;;;;;27.44;30.25;99681.28;10351279;28;20057;-63
2023/07/12 18:22:56;;;;;;;2.67;0.60;;;;;;;27.30;30.20;99677.19;10355604;28;20053;-62
2023/07/12 18:27:58;;;;;;;1.92;0.35;;;;;;;27.29;30.25;99683.72;10357179;28;20064;-63
2023/07/12 18:33:00;;;;;;;0.77;0.32;;;;;;;27.07;30.49;99679.00;10355524;28;20389;-66
2023/07/12 18:38:03;;;;;;;1.98;0.55;;;;;;;27.02;30.64;99684.34;10355180;28;20050;-66
2023/07/12 18:43:16;;;;;;;2.30;0.40;;;;;;;27.05;30.95;99689.31;10344917;28;20057;-68
2023/07/12 18:48:18;;;;;;;1.85;0.40;;;;;;;27.11;31.62;99685.63;10351696;28;20053;-66
2023/07/12 18:53:19;;;;;;;0.90;0.50;;;;;;;27.07;31.25;99689.06;10350276;28;20542;-64
2023/07/12 18:58:22;;;;;;;2.00;0.38;;;;;;;26.86;30.42;99690.59;10352814;28;20443;-65
2023/07/12 19:03:35;;;;;;;2.80;0.70;;;;;;;26.72;30.39;99680.03;10352816;28;20049;-64
2023/07/12 19:08:36;;;;;;;1.40;0.50;;;;;;;26.41;30.33;99679.38;10354357;28;20068;-64
2023/07/12 19:13:38;;;;;;;1.20;0.50;;;;;;;26.36;31.07;99695.66;10349474;28;20057;-64
2023/07/12 19:18:39;;;;;;;1.38;0.60;;;;;;;26.40;30.48;99702.25;10348422;28;21729;-64
2023/07/12 19:23:42;;;;;;;1.85;0.57;;;;;;;26.30;29.72;99715.69;10348034;28;20053;-64
2023/07/12 19:28:43;;;;;;;;;;;;;;;26.23;30.42;99734.09;10347970;28;20053;-63
2023/07/12 19:33:49;;;;;;;1.75;0.32;;;;;;;26.18;30.13;99734.81;10350221;28;19929;-64
2023/07/12 19:38:51;;;;;;;2.10;0.65;;;;;;;26.15;30.70;99751.63;10348849;28;20199;-64
2023/07/12 19:43:53;;;;;;;1.55;0.43;;;;;;;26.09;30.79;99753.44;10342437;28;20208;-65
2023/07/12 19:48:54;;;;;;;1.98;0.45;;;;;;;26.11;29.91;99778.56;10348477;28;20539;-63
2023/07/12 19:53:57;;;;;;;1.35;0.55;;;;;;;25.98;30.53;99781.50;10349352;28;20046;-65
2023/07/12 19:59:00;;;;;;;1.27;0.43;;;;;;;25.88;31.27;99783.97;10349928;28;20052;-64
2023/07/12 20:04:05;;;;;;;1.77;0.90;;;;;;;25.83;31.47;99808.41;10346652;28;20057;-65
2023/07/12 20:09:08;;;;;;;0.68;0.35;;;;;;;25.62;31.18;99796.97;10367745;28;21314;-64
2023/07/12 20:14:10;;;;;;;0.90;0.50;;;;;;;25.56;32.13;99808.81;10346662;28;20065;-64
2023/07/12 20:19:11;;;;;;;0.80;0.50;;;;;;;25.62;32.35;99809.78;10354111;28;20253;-65
2023/07/12 20:24:13;;;;;;;2.28;0.63;;;;;;;25.30;32.33;99810.88;10357527;28;20296;-64
2023/07/12 20:29:14;;;;;;;2.00;0.63;;;;;;;25.41;33.41;99812.78;10355783;28;20050;-62
2023/07/12 20:34:16;;;;;;;1.02;0.50;;;;;;;25.35;32.50;99786.50;10359379;28;20052;-64
2023/07/12 20:39:19;;;;;;;2.25;0.60;;;;;;;25.40;33.13;99794.81;10355630;28;20512;-66
2023/07/12 20:44:23;;;;;;;1.52;0.57;;;;;;;25.49;33.55;99803.47;10352494;28;20058;-65
2023/07/12 20:49:30;;;;;;;0.73;0.60;;;;;;;25.41;33.48;99791.00;10351460;28;20585;-64
2023/07/12 20:54:32;;;;;;;1.90;0.60;;;;;;;25.45;34.01;99812.34;10354609;28;20207;-64
2023/07/12 20:59:34;;;;;;;1.45;0.80;;;;;;;25.44;34.83;99819.69;10352386;28;20041;-62
2023/07/12 21:04:36;;;;;;;1.40;0.70;;;;;;;25.35;35.56;99813.72;10357859;28;20071;-62
2023/07/12 21:09:38;;;;;;;2.47;0.50;;;;;;;25.32;35.73;99819.63;10369737;28;20077;-62
2023/07/12 21:14:39;;;;;;;1.10;0.70;;;;;;;25.28;35.84;99826.59;10372213;28;20050;-63
2023/07/12 21:19:40;;;;;;;1.67;0.50;;;;;;;25.20;36.21;99818.75;10366484;28;20114;-64
2023/07/12 21:24:42;;;;;;;1.17;0.70;;;;;;;25.13;36.35;99827.00;10365949;28;20064;-65
2023/07/12 21:29:43;;;;;;;2.53;0.90;;;;;;;25.19;36.70;99831.53;10372411;28;20085;-64
2023/07/12 21:34:45;;;;;;;2.25;0.50;;;;;;;25.11;37.22;99823.66;10370409;28;20100;-63
2023/07/12 21:39:47;;;;;;;2.05;0.75;;;;;;;25.08;36.87;99842.38;10370909;28;20056;-63
2023/07/12 21:44:49;;;;;;;1.70;0.80;;;;;;;25.06;37.22;99848.03;10367619;28;20144;-63
2023/07/12 21:49:51;;;;;;;2.50;0.50;;;;;;;24.96;37.58;99839.56;10372147;28;20054;-63
2023/07/12 21:54:52;;;;;;;2.67;0.98;;;;;;;24.95;37.77;99856.97;10368095;28;20073;-65
2023/07/12 21:59:54;;;;;;;2.15;0.63;;;;;;;24.90;38.00;99871.25;10373052;28;20107;-63
2023/07/12 22:04:56;;;;;;;1.43;0.60;;;;;;;24.79;37.84;99863.88;10366418;28;20069;-63
2023/07/12 22:09:57;;;;;;;3.20;0.60;;;;;;;24.69;38.00;99869.81;10368723;28;20156;-63
2023/07/12 22:14:58;;;;;;;2.30;0.60;;;;;;;24.70;38.77;99888.63;10367244;28;20207;-67
2023/07/12 22:20:00;;;;;;;3.83;0.50;;;;;;;24.64;38.65;99913.22;10367255;28;20049;-62
2023/07/12 22:25:01;;;;;;;1.25;0.60;;;;;;;24.66;39.06;99908.38;10361485;28;20516;-64
2023/07/12 22:30:04;;;;;;;2.42;0.70;;;;;;;24.54;38.86;99908.25;10357007;28;20069;-64
2023/07/12 22:35:06;;;;;;;3.00;0.65;;;;;;;24.59;39.28;99935.66;10365589;28;20065;-64
2023/07/12 22:40:08;;;;;;;2.03;0.52;;;;;;;24.56;39.28;99946.97;10361998;28;20145;-64
2023/07/12 22:45:09;;;;;;;1.33;0.60;;;;;;;24.52;38.70;99949.28;10363589;28;20174;-65
2023/07/12 22:50:12;;;;;;;3.47;0.70;;;;;;;24.45;39.31;99966.72;10363714;28;20057;-63
2023/07/12 22:55:14;;;;;;;2.47;0.73;;;;;;;24.41;39.79;99965.47;10363989;28;20053;-63
2023/07/12 23:00:18;;;;;;;1.27;0.63;;;;;;;24.40;38.87;99986.41;10364171;28;20103;-63
2023/07/12 23:05:20;;;;;;;2.38;1.02;;;;;;;24.26;39.96;99991.13;10363639;28;20053;-64
2023/07/12 23:10:22;;;;;;;2.15;0.80;;;;;;;24.22;40.58;99995.34;10361171;28;20119;-63
2023/07/12 23:15:23;;;;;;;2.53;1.10;;;;;;;24.19;40.08;100001.22;10363431;28;20191;-64
2023/07/12 23:20:25;;;;;;;2.40;0.93;;;;;;;24.17;40.79;100003.31;10360765;28;20110;-63
2023/07/12 23:25:26;;;;;;;1.85;0.70;;;;;;;24.09;40.56;100023.44;10360491;28;20112;-62
2023/07/12 23:30:28;;;;;;;1.30;0.77;;;;;;;24.06;39.56;100020.31;10362453;28;20053;-62
2023/07/12 23:35:32;;;;;;;2.70;0.70;;;;;;;24.00;40.20;100020.16;10362026;28;20064;-61